createdAt,value
2018-06-20T16:00:28.677Z,71.20
2018-06-20T16:00:53.428Z,60.90
2018-06-20T16:01:18.432Z,59.80
2018-06-20T16:01:43.264Z,59.80
2018-06-20T16:02:08.162Z,59.60
2018-06-20T16:02:32.936Z,59.50
2018-06-20T16:11:18.655Z,59.50
2018-06-20T16:18:00.871Z,60.40
2018-06-20T16:26:06.959Z,61.10
2018-06-20T16:31:11.994Z,60.70
2018-06-20T16:36:17.101Z,60.60
2018-06-20T16:41:22.206Z,60.50
2018-06-20T16:46:27.386Z,60.50
2018-06-20T16:51:32.480Z,60.60
2018-06-20T16:56:37.488Z,60.90
2018-06-20T17:01:47.646Z,60.40
2018-06-20T17:06:52.652Z,60.10
2018-06-20T17:12:02.838Z,60.00
2018-06-20T17:17:13.226Z,59.90
2018-06-20T17:22:23.406Z,59.80
2018-06-20T17:27:28.525Z,59.90
2018-06-20T17:32:33.676Z,59.80
2018-06-20T17:37:38.901Z,59.80
2018-06-20T17:42:43.958Z,60.00
2018-06-20T17:47:49.151Z,59.90
2018-06-20T17:52:54.418Z,59.70
2018-06-20T17:57:59.544Z,59.80
2018-06-20T18:03:07.473Z,59.90
2018-06-20T18:08:17.428Z,60.00
2018-06-20T18:13:26.715Z,60.10
2018-06-20T18:18:31.834Z,60.20
2018-06-20T18:23:36.833Z,60.00
2018-06-20T18:28:41.933Z,60.20
2018-06-20T18:33:46.977Z,60.30
2018-06-20T18:38:52.176Z,60.50
2018-06-20T18:43:57.267Z,60.40
2018-06-20T18:49:02.242Z,60.40
2018-06-20T18:54:07.349Z,60.40
2018-06-20T19:01:19.332Z,60.30
2018-06-20T19:06:29.670Z,60.70
2018-06-20T19:11:34.616Z,60.90
2018-06-20T19:16:39.779Z,60.80
2018-06-20T19:21:45.097Z,60.80
2018-06-20T19:26:50.238Z,60.90
2018-06-20T19:31:55.309Z,61.00
2018-06-20T19:37:00.420Z,61.00
2018-06-20T19:42:05.474Z,61.10
2018-06-20T19:47:10.475Z,60.90
2018-06-20T19:52:15.294Z,61.00
2018-06-20T19:57:21.013Z,60.90
2018-06-20T20:02:26.021Z,61.00
2018-06-20T20:07:30.994Z,61.20
2018-06-20T20:12:36.132Z,60.80
2018-06-20T20:17:41.133Z,61.40
2018-06-20T20:22:46.305Z,61.40
2018-06-20T20:27:51.376Z,61.70
2018-06-20T20:32:56.355Z,62.50
2018-06-20T20:38:01.515Z,61.50
2018-06-20T20:43:06.645Z,61.60
2018-06-20T20:48:11.748Z,61.50
2018-06-20T20:53:16.673Z,61.40
2018-06-20T20:58:21.833Z,61.40
2018-06-20T21:03:27.094Z,61.50
2018-06-20T21:08:32.273Z,61.60
2018-06-20T21:18:42.076Z,61.70
2018-06-20T21:23:47.064Z,61.80
2018-06-20T21:28:52.387Z,61.80
2018-06-20T21:33:57.190Z,61.80
2018-06-20T21:39:02.561Z,61.90
2018-06-20T21:44:07.776Z,61.90
2018-06-20T21:49:12.823Z,62.00
2018-06-20T21:54:17.809Z,62.00
2018-06-20T21:59:23.062Z,61.80
2018-06-20T22:04:28.077Z,61.90
2018-06-20T22:09:33.510Z,62.00
2018-06-20T22:14:38.717Z,61.90
2018-06-20T22:19:43.525Z,62.00
2018-06-20T22:24:48.595Z,62.00
2018-06-20T22:29:53.536Z,62.00
2018-06-20T22:34:58.619Z,62.00
2018-06-20T22:40:03.760Z,61.80
2018-06-20T22:45:08.912Z,61.80
2018-06-20T22:50:14.026Z,62.00
2018-06-20T22:55:19.134Z,61.90
2018-06-20T23:00:24.584Z,61.90
2018-06-20T23:05:29.686Z,61.80
2018-06-20T23:10:34.679Z,62.00
2018-06-20T23:15:39.788Z,62.00
2018-06-20T23:20:44.720Z,61.90
2018-06-20T23:25:49.733Z,61.90
2018-06-20T23:30:54.648Z,61.90
2018-06-20T23:35:59.805Z,61.90
2018-06-20T23:41:04.733Z,61.90
2018-06-20T23:46:09.737Z,61.80
2018-06-20T23:51:14.767Z,61.80
2018-06-20T23:56:19.614Z,61.80
